Time;durP1;ratioP1;P1;durP2;ratioP2;P2;SDS_P1;SDS_P2;PMS_P1;PMS_P2;Temp;Humidity;BMP_temperature;BMP_pressure;BME280_temperature;BME280_humidity;BME280_pressure;Samples;Min_cycle;Max_cycle;Signal;HPM_P1;HPM_P2
2022/01/02 00:00:15;;;;;;;138.73;11.20;;;;;;;;;;4799864;29;20165;-68
2022/01/02 00:03:06;;;;;;;110.38;10.27;;;;;;;;;;4799893;29;20054;-68
2022/01/02 00:05:53;;;;;;;94.80;9.73;;;;;;;;;;4815119;29;20054;-67
2022/01/02 00:08:41;;;;;;;107.45;9.50;;;;;;;;;;4822374;29;20121;-68
2022/01/02 00:11:28;;;;;;;172.60;9.88;;;;;;;;;;4811208;29;20195;-68
2022/01/02 00:14:16;;;;;;;174.15;9.52;;;;;;;;;;4803652;29;20053;-67
2022/01/02 00:17:03;;;;;;;98.53;9.18;;;;;;;;;;4804809;29;20430;-67
2022/01/02 00:19:53;;;;;;;180.15;9.50;;;;;;;;;;4803551;29;20542;-67
2022/01/02 00:22:40;;;;;;;104.22;8.20;;;;;;;;;;4813967;29;20049;-67
2022/01/02 00:25:31;;;;;;;106.78;7.75;;;;;;;;;;4819437;29;20562;-68
2022/01/02 00:28:18;;;;;;;142.52;8.52;;;;;;;;;;4803922;29;20053;-67
2022/01/02 00:31:03;;;;;;;118.80;9.00;;;;;;;;;;4801869;29;20584;-68
2022/01/02 00:33:49;;;;;;;74.72;9.25;;;;;;;;;;4803781;29;20419;-68
2022/01/02 00:36:36;;;;;;;95.50;9.48;;;;;;;;;;4802320;29;20302;-68
2022/01/02 00:39:22;;;;;;;97.88;8.23;;;;;;;;;;4802488;29;20150;-67
2022/01/02 00:42:11;;;;;;;95.07;9.77;;;;;;;;;;4803511;29;20101;-68
2022/01/02 00:45:15;;;;;;;92.53;8.85;;;;;;;;;;4804122;29;20191;-68
2022/01/02 00:48:21;;;;;;;26.13;5.57;;;;;;;;;;4786203;30;20053;-68
2022/01/02 00:51:11;;;;;;;87.50;9.27;;;;;;;;;;4790490;29;20176;-68
2022/01/02 00:54:00;;;;;;;103.85;10.75;;;;;;;;;;4803445;29;20431;-67
2022/01/02 00:56:47;;;;;;;94.53;10.07;;;;;;;;;;4812890;29;20058;-67
2022/01/02 00:59:45;;;;;;;92.15;10.18;;;;;;;;;;4801306;29;20344;-67
2022/01/02 01:02:34;;;;;;;85.35;8.45;;;;;;;;;;4821086;29;20176;-68
2022/01/02 01:05:21;;;;;;;78.13;8.85;;;;;;;;;;4801565;29;20230;-68
2022/01/02 01:08:09;;;;;;;82.95;9.50;;;;;;;;;;4803046;29;20523;-67
2022/01/02 01:10:55;;;;;;;23.58;5.65;;;;;;;;;;4811766;29;20058;-67
2022/01/02 01:13:41;;;;;;;102.60;8.45;;;;;;;;;;4821684;29;20057;-67
2022/01/02 01:16:27;;;;;;;21.02;4.43;;;;;;;;;;4810845;29;20058;-67
2022/01/02 01:19:13;;;;;;;100.07;8.93;;;;;;;;;;4802496;29;20061;-67
2022/01/02 01:21:59;;;;;;;209.13;13.52;;;;;;;;;;4810068;29;20088;-67
2022/01/02 01:24:45;;;;;;;92.78;8.00;;;;;;;;;;4802907;29;20053;-67
2022/01/02 01:27:32;;;;;;;27.00;4.35;;;;;;;;;;4803565;29;20646;-67
2022/01/02 01:30:19;;;;;;;81.63;7.82;;;;;;;;;;4801304;29;20143;-67
2022/01/02 01:33:07;;;;;;;83.22;9.13;;;;;;;;;;4803654;29;20423;-68
2022/01/02 01:35:53;;;;;;;100.80;10.57;;;;;;;;;;4802188;29;20061;-67
2022/01/02 01:38:39;;;;;;;101.93;7.82;;;;;;;;;;4802759;29;20205;-67
2022/01/02 01:41:28;;;;;;;18.90;5.75;;;;;;;;;;4798617;29;20061;-67
2022/01/02 01:47:04;;;;;;;76.30;8.77;;;;;;;;;;4804044;29;20538;-67
2022/01/02 01:49:50;;;;;;;77.32;8.05;;;;;;;;;;4801639;29;20050;-67
2022/01/02 01:52:36;;;;;;;121.82;15.05;;;;;;;;;;4801322;29;20423;-67
2022/01/02 01:55:22;;;;;;;76.10;14.45;;;;;;;;;;4801449;29;20070;-67
2022/01/02 01:58:08;;;;;;;82.93;11.15;;;;;;;;;;4801495;29;20518;-67
2022/01/02 02:00:58;;;;;;;27.88;5.32;;;;;;;;;;4800566;29;20065;-67
2022/01/02 02:03:54;;;;;;;61.65;8.43;;;;;;;;;;4801465;29;20045;-67
2022/01/02 02:06:40;;;;;;;41.72;10.85;;;;;;;;;;4801834;29;20057;-67
2022/01/02 02:09:35;;;;;;;18.92;7.07;;;;;;;;;;4801122;29;20104;-67
2022/01/02 02:12:21;;;;;;;74.38;12.68;;;;;;;;;;4800872;29;20058;-67
2022/01/02 02:15:08;;;;;;;59.25;7.45;;;;;;;;;;4800858;29;20075;-67
2022/01/02 02:17:55;;;;;;;38.30;6.68;;;;;;;;;;4801745;29;20061;-67
2022/01/02 02:20:41;;;;;;;49.47;6.22;;;;;;;;;;4802450;29;20058;-67
2022/01/02 02:23:33;;;;;;;;;;;;;;;;;;4802822;29;20070;-67
2022/01/02 02:26:19;;;;;;;10.88;5.68;;;;;;;;;;4801331;29;19932;-67
2022/01/02 02:29:05;;;;;;;7.38;4.80;;;;;;;;;;4801874;29;20058;-67
2022/01/02 02:31:54;;;;;;;49.00;10.55;;;;;;;;;;4813756;29;20174;-67
2022/01/02 02:34:41;;;;;;;7.65;4.97;;;;;;;;;;4819887;29;20138;-67
2022/01/02 02:37:29;;;;;;;11.40;6.07;;;;;;;;;;4802221;29;20632;-67
2022/01/02 02:40:17;;;;;;;16.02;5.88;;;;;;;;;;4801441;29;20612;-67
2022/01/02 02:49:06;;;;;;;47.70;7.85;;;;;;;;;;4809306;29;20049;-67
2022/01/02 02:51:57;;;;;;;6.25;3.85;;;;;;;;;;4819047;29;20058;-67
2022/01/02 02:54:51;;;;;;;17.25;5.15;;;;;;;;;;4819651;29;20163;-67
2022/01/02 02:57:39;;;;;;;57.58;7.68;;;;;;;;;;4801319;29;20302;-67
2022/01/02 03:00:24;;;;;;;40.92;6.78;;;;;;;;;;4800217;29;20527;-67
2022/01/02 03:03:10;;;;;;;6.82;4.05;;;;;;;;;;4801748;29;20227;-67
2022/01/02 03:05:56;;;;;;;34.75;7.28;;;;;;;;;;4801891;29;20112;-67
2022/01/02 03:08:43;;;;;;;10.90;3.97;;;;;;;;;;4802742;29;20050;-67
2022/01/02 03:11:30;;;;;;;26.65;4.53;;;;;;;;;;4800727;29;20204;-67
2022/01/02 03:14:16;;;;;;;16.52;4.18;;;;;;;;;;4801131;29;20131;-67
2022/01/02 03:17:03;;;;;;;11.07;3.78;;;;;;;;;;4801727;29;20543;-67
2022/01/02 03:19:49;;;;;;;21.48;4.60;;;;;;;;;;4800381;29;20530;-67
2022/01/02 03:22:37;;;;;;;58.13;7.32;;;;;;;;;;4801024;29;20466;-67
2022/01/02 03:25:23;;;;;;;44.80;4.97;;;;;;;;;;4801122;29;20107;-67
2022/01/02 03:28:09;;;;;;;7.63;3.42;;;;;;;;;;4802150;29;20053;-67
2022/01/02 03:30:55;;;;;;;13.43;3.38;;;;;;;;;;4814816;29;20168;-67
2022/01/02 03:33:43;;;;;;;53.45;6.72;;;;;;;;;;4800986;29;20054;-67
2022/01/02 03:36:29;;;;;;;69.50;7.45;;;;;;;;;;4800946;29;20058;-67
2022/01/02 03:39:15;;;;;;;45.88;5.28;;;;;;;;;;4801969;29;20427;-67
2022/01/02 03:42:01;;;;;;;17.35;4.70;;;;;;;;;;4804095;29;20053;-67
2022/01/02 03:44:48;;;;;;;15.43;3.83;;;;;;;;;;4804682;29;20465;-67
2022/01/02 03:47:33;;;;;;;12.23;3.08;;;;;;;;;;4804582;29;20415;-67
2022/01/02 03:50:19;;;;;;;75.47;7.38;;;;;;;;;;4803851;29;20061;-68
2022/01/02 03:53:06;;;;;;;43.35;5.47;;;;;;;;;;4804409;29;20053;-67
2022/01/02 03:55:51;;;;;;;48.05;5.50;;;;;;;;;;4805263;29;20135;-67
2022/01/02 03:58:37;;;;;;;14.88;3.58;;;;;;;;;;4804618;29;20054;-68
2022/01/02 04:01:23;;;;;;;88.80;8.70;;;;;;;;;;4803387;29;20058;-68
2022/01/02 04:04:09;;;;;;;54.67;5.25;;;;;;;;;;4804045;29;20073;-68
2022/01/02 04:06:55;;;;;;;36.05;4.15;;;;;;;;;;4818175;29;20057;-67
2022/01/02 04:09:41;;;;;;;67.63;6.07;;;;;;;;;;4822552;29;20192;-68
2022/01/02 04:12:28;;;;;;;2.97;2.78;;;;;;;;;;4803646;29;20199;-68
2022/01/02 04:15:15;;;;;;;21.55;3.75;;;;;;;;;;4803661;29;20111;-67
2022/01/02 04:18:02;;;;;;;57.05;5.18;;;;;;;;;;4821642;29;20072;-67
2022/01/02 04:20:49;;;;;;;47.47;7.00;;;;;;;;;;4822231;29;20053;-67
2022/01/02 04:23:38;;;;;;;74.88;6.72;;;;;;;;;;4803768;29;20065;-67
2022/01/02 04:26:24;;;;;;;93.30;9.10;;;;;;;;;;4803401;29;20157;-67
2022/01/02 04:29:10;;;;;;;32.20;4.13;;;;;;;;;;4801560;29;20161;-67
2022/01/02 04:31:56;;;;;;;75.88;7.22;;;;;;;;;;4804526;29;20144;-67
2022/01/02 04:34:41;;;;;;;60.78;6.60;;;;;;;;;;4804217;29;20050;-67
2022/01/02 04:37:29;;;;;;;59.60;6.50;;;;;;;;;;4802705;29;20728;-67
2022/01/02 04:40:16;;;;;;;66.43;6.43;;;;;;;;;;4803637;29;20480;-67
2022/01/02 04:43:01;;;;;;;36.80;5.47;;;;;;;;;;4822044;29;20671;-67
2022/01/02 04:45:48;;;;;;;59.35;5.47;;;;;;;;;;4816048;29;20057;-67
2022/01/02 04:48:34;;;;;;;47.67;5.82;;;;;;;;;;4803320;29;20530;-67
2022/01/02 04:51:20;;;;;;;28.45;4.47;;;;;;;;;;4801745;29;20058;-67
2022/01/02 04:54:06;;;;;;;61.03;9.00;;;;;;;;;;4805017;29;20073;-67
2022/01/02 04:56:52;;;;;;;12.48;3.90;;;;;;;;;;4803940;29;20111;-67
2022/01/02 04:59:39;;;;;;;32.83;4.15;;;;;;;;;;4802733;29;20354;-67
2022/01/02 05:02:25;;;;;;;32.38;4.97;;;;;;;;;;4802626;29;20055;-67
2022/01/02 05:05:12;;;;;;;30.45;5.72;;;;;;;;;;4802771;29;20061;-67
2022/01/02 05:07:58;;;;;;;5.05;2.58;;;;;;;;;;4802869;29;20078;-67
2022/01/02 05:10:44;;;;;;;2.92;2.58;;;;;;;;;;4807181;29;20579;-67
2022/01/02 05:13:30;;;;;;;30.30;4.40;;;;;;;;;;4821148;29;20069;-67
2022/01/02 05:16:16;;;;;;;29.45;5.10;;;;;;;;;;4812387;29;20160;-67
2022/01/02 05:19:02;;;;;;;35.28;4.95;;;;;;;;;;4804004;29;20054;-67
2022/01/02 05:21:50;;;;;;;41.97;4.88;;;;;;;;;;4801551;29;20057;-67
2022/01/02 05:24:36;;;;;;;45.72;5.18;;;;;;;;;;4802943;29;20069;-67
2022/01/02 05:27:22;;;;;;;13.65;3.42;;;;;;;;;;4806008;29;20054;-67
2022/01/02 05:30:08;;;;;;;42.10;5.85;;;;;;;;;;4802337;29;20330;-67
2022/01/02 05:32:54;;;;;;;50.03;6.43;;;;;;;;;;4802128;29;20135;-67
2022/01/02 05:35:41;;;;;;;18.20;3.88;;;;;;;;;;4807407;29;20421;-67
2022/01/02 05:38:27;;;;;;;7.10;2.83;;;;;;;;;;4795222;29;20082;-67
2022/01/02 05:41:14;;;;;;;44.03;4.72;;;;;;;;;;4805396;29;20062;-67
2022/01/02 05:44:00;;;;;;;25.67;2.72;;;;;;;;;;4801793;29;20053;-67
2022/01/02 05:46:47;;;;;;;33.97;3.03;;;;;;;;;;4790414;29;20046;-67
2022/01/02 05:49:33;;;;;;;30.77;3.13;;;;;;;;;;4800657;29;20063;-67
2022/01/02 05:52:20;;;;;;;19.60;2.67;;;;;;;;;;4808618;29;20061;-67
2022/01/02 05:55:06;;;;;;;12.73;1.40;;;;;;;;;;4801192;29;20544;-67
2022/01/02 05:57:52;;;;;;;4.88;1.95;;;;;;;;;;4802047;29;20082;-67
2022/01/02 06:00:38;;;;;;;11.23;2.53;;;;;;;;;;4800690;29;20600;-68
2022/01/02 06:03:24;;;;;;;6.35;2.47;;;;;;;;;;4800726;29;20168;-67
2022/01/02 06:06:10;;;;;;;33.35;3.92;;;;;;;;;;4800601;29;20065;-69
2022/01/02 06:08:56;;;;;;;13.57;3.05;;;;;;;;;;4802454;29;20050;-67
2022/01/02 06:11:42;;;;;;;32.53;5.15;;;;;;;;;;4800183;29;20427;-67
2022/01/02 06:14:28;;;;;;;10.52;3.40;;;;;;;;;;4801048;29;20062;-69
2022/01/02 06:17:14;;;;;;;2.80;2.60;;;;;;;;;;4800331;29;20060;-68
2022/01/02 06:20:00;;;;;;;18.50;3.15;;;;;;;;;;4800877;29;20201;-69
2022/01/02 06:22:47;;;;;;;27.65;4.43;;;;;;;;;;4800567;29;20641;-69
2022/01/02 06:25:33;;;;;;;40.50;5.50;;;;;;;;;;4804002;29;20049;-69
2022/01/02 06:28:20;;;;;;;23.23;4.15;;;;;;;;;;4807361;29;20065;-69
2022/01/02 06:31:05;;;;;;;9.80;2.58;;;;;;;;;;4800480;29;20136;-69
2022/01/02 06:33:51;;;;;;;34.58;4.80;;;;;;;;;;4802174;29;20058;-69
2022/01/02 06:36:37;;;;;;;2.42;2.22;;;;;;;;;;4803330;29;20058;-69
2022/01/02 06:39:23;;;;;;;5.72;2.60;;;;;;;;;;4799997;29;20592;-69
2022/01/02 06:42:09;;;;;;;4.05;2.45;;;;;;;;;;4805988;29;20057;-69
2022/01/02 06:44:58;;;;;;;9.13;3.92;;;;;;;;;;4822516;24;20065;-69
2022/01/02 06:47:44;;;;;;;7.13;4.55;;;;;;;;;;4813607;29;20475;-70
2022/01/02 06:50:30;;;;;;;15.93;10.68;;;;;;;;;;4837871;29;20044;-71
2022/01/02 06:53:16;;;;;;;10.60;7.88;;;;;;;;;;4819193;29;20068;-70
2022/01/02 06:56:02;;;;;;;9.38;5.90;;;;;;;;;;4820515;29;20119;-71
2022/01/02 06:58:48;;;;;;;19.75;10.18;;;;;;;;;;4819930;29;20053;-70
2022/01/02 07:01:35;;;;;;;16.83;8.50;;;;;;;;;;4814948;29;20119;-70
2022/01/02 07:04:21;;;;;;;39.67;20.83;;;;;;;;;;4812113;29;20053;-71
2022/01/02 07:07:07;;;;;;;21.13;9.65;;;;;;;;;;4799343;29;20139;-71
2022/01/02 07:09:53;;;;;;;15.20;9.60;;;;;;;;;;4799308;29;20143;-71
2022/01/02 07:12:39;;;;;;;34.75;19.33;;;;;;;;;;4784925;29;20155;-71
2022/01/02 07:15:25;;;;;;;32.75;17.80;;;;;;;;;;4786786;29;20522;-71
2022/01/02 07:18:11;;;;;;;45.25;15.57;;;;;;;;;;4802638;29;20061;-71
2022/01/02 07:20:57;;;;;;;46.65;15.65;;;;;;;;;;4808093;29;20062;-70
2022/01/02 07:23:42;;;;;;;43.17;10.30;;;;;;;;;;4820772;29;20061;-71
2022/01/02 07:26:28;;;;;;;125.95;30.88;;;;;;;;;;4820494;29;20536;-70
2022/01/02 07:29:17;;;;;;;48.00;23.05;;;;;;;;;;4821113;29;20061;-71
2022/01/02 07:32:03;;;;;;;57.78;14.55;;;;;;;;;;4806155;29;20073;-71
2022/01/02 07:34:49;;;;;;;50.67;14.48;;;;;;;;;;4802552;29;20057;-71
2022/01/02 07:37:35;;;;;;;42.53;6.75;;;;;;;;;;4802330;29;20526;-71
2022/01/02 07:40:21;;;;;;;25.75;6.20;;;;;;;;;;4803127;29;20066;-69
2022/01/02 07:43:07;;;;;;;21.27;3.88;;;;;;;;;;4820288;29;20431;-70
2022/01/02 07:45:54;;;;;;;14.85;5.22;;;;;;;;;;4818973;29;20053;-71
2022/01/02 07:48:40;;;;;;;46.65;7.60;;;;;;;;;;4819440;29;20054;-70
2022/01/02 07:51:26;;;;;;;5.90;4.00;;;;;;;;;;4810343;29;20050;-69
2022/01/02 07:54:14;;;;;;;23.40;3.55;;;;;;;;;;4802678;29;20196;-70
2022/01/02 07:57:01;;;;;;;44.15;5.22;;;;;;;;;;4816576;29;20061;-71
2022/01/02 07:59:47;;;;;;;80.82;5.25;;;;;;;;;;4820134;29;20141;-70
2022/01/02 08:02:59;;;;;;;19.45;2.72;;;;;;;;;;4802373;29;20546;-70
2022/01/02 08:05:45;;;;;;;95.78;5.18;;;;;;;;;;4802268;29;20050;-73
2022/01/02 08:08:30;;;;;;;65.05;5.13;;;;;;;;;;4801889;29;20054;-70
2022/01/02 08:11:17;;;;;;;11.32;2.83;;;;;;;;;;4801445;29;20049;-70
2022/01/02 08:14:22;;;;;;;49.97;5.00;;;;;;;;;;4802106;29;20404;-70
2022/01/02 08:17:08;;;;;;;72.35;6.50;;;;;;;;;;4816752;29;20065;-71
2022/01/02 08:19:54;;;;;;;33.00;3.28;;;;;;;;;;4819561;29;20630;-71
2022/01/02 08:22:40;;;;;;;34.33;3.35;;;;;;;;;;4783849;29;20093;-71
2022/01/02 08:25:26;;;;;;;69.22;3.67;;;;;;;;;;4787206;29;20075;-70
2022/01/02 08:28:12;;;;;;;60.50;4.82;;;;;;;;;;4805378;29;20152;-70
2022/01/02 08:30:58;;;;;;;68.43;5.68;;;;;;;;;;4804864;29;20065;-71
2022/01/02 08:33:44;;;;;;;39.95;5.55;;;;;;;;;;4805251;29;20046;-71
2022/01/02 08:36:30;;;;;;;4.85;3.00;;;;;;;;;;4815083;29;20548;-71
2022/01/02 08:39:16;;;;;;;10.90;3.45;;;;;;;;;;4823031;29;20054;-72
2022/01/02 08:42:02;;;;;;;3.65;2.70;;;;;;;;;;4822183;29;20422;-70
2022/01/02 08:44:48;;;;;;;16.30;3.35;;;;;;;;;;4822110;29;20122;-70
2022/01/02 08:47:34;;;;;;;10.35;4.22;;;;;;;;;;4834501;29;20102;-70
2022/01/02 08:50:19;;;;;;;11.25;4.90;;;;;;;;;;4815690;29;20076;-70
2022/01/02 08:53:05;;;;;;;21.23;4.72;;;;;;;;;;4822270;29;20061;-70
2022/01/02 08:55:51;;;;;;;12.98;4.05;;;;;;;;;;4807633;29;20075;-71
2022/01/02 08:58:37;;;;;;;12.23;4.68;;;;;;;;;;4797586;29;20069;-70
2022/01/02 09:01:23;;;;;;;9.80;5.28;;;;;;;;;;4800016;29;20535;-71
2022/01/02 09:04:09;;;;;;;4.72;3.60;;;;;;;;;;4800018;29;20140;-71
2022/01/02 09:06:55;;;;;;;7.90;4.40;;;;;;;;;;4800691;29;20102;-71
2022/01/02 09:09:41;;;;;;;15.07;4.85;;;;;;;;;;4800432;29;20525;-71
2022/01/02 09:12:27;;;;;;;9.63;4.07;;;;;;;;;;4811820;29;20050;-71
2022/01/02 09:15:13;;;;;;;15.30;4.63;;;;;;;;;;4802675;29;20058;-71
2022/01/02 09:17:59;;;;;;;31.45;4.53;;;;;;;;;;4797432;29;20058;-71
2022/01/02 09:20:45;;;;;;;9.20;4.55;;;;;;;;;;4789914;29;20111;-71
2022/01/02 09:23:34;;;;;;;9.52;5.22;;;;;;;;;;4790791;29;20050;-71
2022/01/02 09:26:19;;;;;;;8.23;5.13;;;;;;;;;;4792530;29;20073;-71
2022/01/02 09:29:05;;;;;;;7.60;4.40;;;;;;;;;;4801565;29;20054;-71
2022/01/02 09:31:51;;;;;;;10.27;4.05;;;;;;;;;;4790748;29;20523;-71
2022/01/02 09:34:37;;;;;;;8.07;4.18;;;;;;;;;;4785499;29;20054;-72
2022/01/02 09:37:23;;;;;;;5.32;4.20;;;;;;;;;;4789590;29;20305;-72
2022/01/02 09:40:09;;;;;;;8.13;4.63;;;;;;;;;;4792585;29;20058;-71
2022/01/02 09:42:57;;;;;;;10.70;4.38;;;;;;;;;;4791711;29;20453;-71
2022/01/02 09:45:46;;;;;;;6.75;3.85;;;;;;;;;;4792363;29;20058;-71
2022/01/02 09:48:34;;;;;;;11.88;4.68;;;;;;;;;;4799539;29;20047;-71
2022/01/02 09:51:24;;;;;;;7.85;5.10;;;;;;;;;;4803070;29;20078;-71
2022/01/02 09:54:11;;;;;;;9.40;4.40;;;;;;;;;;4793395;29;20533;-71
2022/01/02 09:56:38;;;;;;;7.00;4.97;;;;;;;;;;4803385;29;20458;-72
2022/01/02 09:59:05;;;;;;;10.40;4.25;;;;;;;;;;4790661;29;20463;-71
2022/01/02 10:01:33;;;;;;;8.10;3.90;;;;;;;;;;4792271;29;20092;-70
2022/01/02 10:04:01;;;;;;;6.78;4.45;;;;;;;;;;4783391;29;20126;-70
2022/01/02 10:06:39;;;;;;;7.45;5.43;;;;;;;;;;4784670;29;20043;-70
2022/01/02 10:09:30;;;;;;;10.25;5.15;;;;;;;;;;4792168;29;20057;-71
2022/01/02 10:12:17;;;;;;;6.82;5.22;;;;;;;;;;4792799;29;20074;-72
2022/01/02 10:14:44;;;;;;;8.32;5.18;;;;;;;;;;4788715;29;20043;-71
2022/01/02 10:17:12;;;;;;;5.97;3.70;;;;;;;;;;4789734;29;20134;-70
2022/01/02 10:19:45;;;;;;;4.50;4.05;;;;;;;;;;4801744;29;20191;-70
2022/01/02 10:22:12;;;;;;;7.60;4.88;;;;;;;;;;4792836;29;20504;-71
2022/01/02 10:24:42;;;;;;;7.53;5.22;;;;;;;;;;4798340;29;20424;-71
2022/01/02 10:27:10;;;;;;;13.55;5.63;;;;;;;;;;4796538;29;20385;-71
2022/01/02 10:29:50;;;;;;;8.02;4.88;;;;;;;;;;4800149;29;20039;-70
2022/01/02 10:32:30;;;;;;;4.40;4.00;;;;;;;;;;4791635;29;20045;-71
2022/01/02 10:35:16;;;;;;;12.95;5.30;;;;;;;;;;4793300;29;20043;-70
2022/01/02 10:37:48;;;;;;;11.68;5.00;;;;;;;;;;4802066;29;20500;-70
2022/01/02 10:40:29;;;;;;;7.82;5.60;;;;;;;;;;4811798;29;20173;-70
2022/01/02 10:42:58;;;;;;;6.53;5.07;;;;;;;;;;4796193;29;20133;-70
2022/01/02 10:45:33;;;;;;;7.82;5.30;;;;;;;;;;4797690;29;20046;-71
2022/01/02 10:48:00;;;;;;;9.23;5.75;;;;;;;;;;4796657;29;20061;-70
2022/01/02 10:50:35;;;;;;;8.10;5.70;;;;;;;;;;4801391;29;20042;-71
2022/01/02 10:53:15;;;;;;;6.18;4.78;;;;;;;;;;4802573;29;20043;-71
2022/01/02 10:55:47;;;;;;;13.88;5.68;;;;;;;;;;4806303;29;20125;-70
2022/01/02 10:58:15;;;;;;;5.82;5.03;;;;;;;;;;4820956;29;20460;-70
2022/01/02 11:00:43;;;;;;;5.63;4.30;;;;;;;;;;4818096;29;20042;-70
2022/01/02 11:03:12;;;;;;;5.68;4.97;;;;;;;;;;4811273;29;20084;-70
2022/01/02 11:05:40;;;;;;;7.80;5.03;;;;;;;;;;4811656;29;20058;-70
2022/01/02 11:08:08;;;;;;;4.85;4.38;;;;;;;;;;4818306;29;20055;-71
2022/01/02 11:10:35;;;;;;;6.00;4.97;;;;;;;;;;4822133;29;20070;-70
2022/01/02 11:13:04;;;;;;;5.15;4.65;;;;;;;;;;4823572;29;20043;-72
2022/01/02 11:15:32;;;;;;;6.55;5.05;;;;;;;;;;4823671;29;20054;-70
2022/01/02 11:18:00;;;;;;;6.65;5.25;;;;;;;;;;4800791;29;20054;-71
2022/01/02 11:20:32;;;;;;;6.80;5.55;;;;;;;;;;4799736;29;20043;-72
2022/01/02 11:23:03;;;;;;;9.23;5.53;;;;;;;;;;4795975;29;20051;-72
2022/01/02 11:25:42;;;;;;;7.25;5.53;;;;;;;;;;4804589;29;20192;-72
2022/01/02 11:28:14;;;;;;;6.18;5.57;;;;;;;;;;4812902;29;20475;-72
2022/01/02 11:30:42;;;;;;;9.55;4.75;;;;;;;;;;4806813;29;20476;-72
2022/01/02 11:33:14;;;;;;;8.50;4.88;;;;;;;;;;4797935;29;20446;-72
2022/01/02 11:35:49;;;;;;;10.48;5.55;;;;;;;;;;4800101;29;20126;-71
2022/01/02 11:38:17;;;;;;;7.28;5.50;;;;;;;;;;4795588;29;20054;-72
2022/01/02 11:40:47;;;;;;;10.27;6.32;;;;;;;;;;4798163;29;20153;-72
2022/01/02 11:43:34;;;;;;;9.90;6.15;;;;;;;;;;4801620;29;20137;-72
2022/01/02 11:46:19;;;;;;;7.20;6.50;;;;;;;;;;4800090;29;20130;-72
2022/01/02 11:49:05;;;;;;;8.32;6.93;;;;;;;;;;4794946;29;20477;-72
2022/01/02 11:51:48;;;;;;;8.48;7.10;;;;;;;;;;4804350;29;20054;-72
2022/01/02 11:54:40;;;;;;;7.40;6.60;;;;;;;;;;4801876;29;20299;-72
2022/01/02 11:57:18;;;;;;;8.45;6.65;;;;;;;;;;4800493;29;20057;-72
2022/01/02 11:59:45;;;;;;;7.53;6.68;;;;;;;;;;4800204;29;20381;-72
2022/01/02 12:02:13;;;;;;;8.13;6.43;;;;;;;;;;4802157;29;20074;-72
2022/01/02 12:05:03;;;;;;;8.25;7.43;;;;;;;;;;4805193;29;20050;-72
2022/01/02 12:07:37;;;;;;;7.72;7.00;;;;;;;;;;4821490;29;20732;-73
2022/01/02 12:10:16;;;;;;;9.10;7.20;;;;;;;;;;4822667;29;20053;-72
2022/01/02 12:13:05;;;;;;;8.57;7.40;;;;;;;;;;4823065;29;20051;-73
2022/01/02 12:15:32;;;;;;;9.38;8.02;;;;;;;;;;4836683;29;20049;-73
2022/01/02 12:18:16;;;;;;;12.35;9.65;;;;;;;;;;4823260;29;20054;-73
2022/01/02 12:20:53;;;;;;;9.00;6.97;;;;;;;;;;4836043;29;20125;-75
2022/01/02 12:23:42;;;;;;;9.25;7.57;;;;;;;;;;4822838;29;20050;-75
2022/01/02 12:26:10;;;;;;;9.65;7.40;;;;;;;;;;4787083;29;20059;-74
2022/01/02 12:28:39;;;;;;;9.50;7.28;;;;;;;;;;4802296;29;20130;-71
2022/01/02 12:31:07;;;;;;;7.32;6.63;;;;;;;;;;4801211;29;20100;-71
2022/01/02 12:33:36;;;;;;;8.65;7.70;;;;;;;;;;4802046;29;20133;-71
2022/01/02 12:36:07;;;;;;;;;;;;;;;;;;4795386;29;20671;-71
2022/01/02 12:38:51;;;;;;;11.07;7.68;;;;;;;;;;4783712;30;19925;-71
2022/01/02 12:41:20;;;;;;;9.82;7.78;;;;;;;;;;4797279;29;20055;-71
2022/01/02 12:43:53;;;;;;;7.95;6.82;;;;;;;;;;4872920;23;20050;-67
2022/01/02 12:46:39;;;;;;;8.02;7.22;;;;;;;;;;4812367;29;20035;-66
2022/01/02 12:49:11;;;;;;;8.13;7.30;;;;;;;;;;4811841;29;20472;-67
2022/01/02 12:51:48;;;;;;;8.75;7.40;;;;;;;;;;4829160;29;20061;-66
2022/01/02 12:54:17;;;;;;;8.55;7.75;;;;;;;;;;4840645;29;20064;-67
2022/01/02 12:56:48;;;;;;;10.65;9.52;;;;;;;;;;4827932;29;20406;-67
2022/01/02 12:59:17;;;;;;;12.00;7.72;;;;;;;;;;4815132;29;20054;-67
2022/01/02 13:01:55;;;;;;;8.60;7.68;;;;;;;;;;4820045;29;20046;-67
2022/01/02 13:04:29;;;;;;;7.68;6.97;;;;;;;;;;4820752;29;20058;-67
2022/01/02 13:06:58;;;;;;;7.28;6.57;;;;;;;;;;4819524;29;20522;-67
2022/01/02 13:09:27;;;;;;;7.20;6.60;;;;;;;;;;4836737;29;20413;-67
2022/01/02 13:11:55;;;;;;;6.95;6.30;;;;;;;;;;4822775;29;20487;-67
2022/01/02 13:14:29;;;;;;;8.10;7.30;;;;;;;;;;4820779;29;20042;-67
2022/01/02 13:16:57;;;;;;;7.25;6.55;;;;;;;;;;4820533;29;20522;-66
2022/01/02 13:19:25;;;;;;;9.80;8.80;;;;;;;;;;4821049;29;20045;-67
2022/01/02 13:21:53;;;;;;;7.75;6.95;;;;;;;;;;4821467;29;20521;-66
2022/01/02 13:24:21;;;;;;;8.70;7.20;;;;;;;;;;4850831;29;20050;-67
2022/01/02 13:26:49;;;;;;;8.05;7.05;;;;;;;;;;4832574;29;20080;-67
2022/01/02 13:29:23;;;;;;;10.23;7.55;;;;;;;;;;4817692;29;20532;-66
2022/01/02 13:31:52;;;;;;;8.65;7.38;;;;;;;;;;4830276;29;20495;-66
2022/01/02 13:34:24;;;;;;;9.27;7.57;;;;;;;;;;4821188;29;20070;-66
2022/01/02 13:36:55;;;;;;;8.70;6.93;;;;;;;;;;4822130;29;20053;-66
2022/01/02 13:39:42;;;;;;;9.23;7.47;;;;;;;;;;4820080;29;20057;-67
2022/01/02 13:42:10;;;;;;;8.23;7.15;;;;;;;;;;4828244;29;20086;-66
2022/01/02 13:44:49;;;;;;;6.75;6.05;;;;;;;;;;4834550;29;20050;-66
2022/01/02 13:47:17;;;;;;;7.95;6.95;;;;;;;;;;4821259;29;20490;-67
2022/01/02 13:49:56;;;;;;;7.68;6.88;;;;;;;;;;4822452;29;20054;-67
2022/01/02 13:52:24;;;;;;;8.80;7.75;;;;;;;;;;4835238;29;20065;-67
2022/01/02 13:55:06;;;;;;;9.95;7.78;;;;;;;;;;4841039;29;20061;-66
2022/01/02 13:57:33;;;;;;;11.90;8.38;;;;;;;;;;4825048;29;20098;-67
2022/01/02 14:00:17;;;;;;;10.98;8.45;;;;;;;;;;4821429;29;20050;-66
2022/01/02 14:02:44;;;;;;;13.75;9.68;;;;;;;;;;4828360;29;20045;-67
2022/01/02 14:05:11;;;;;;;10.18;8.70;;;;;;;;;;4839099;29;20054;-66
2022/01/02 14:07:39;;;;;;;11.95;9.10;;;;;;;;;;4822475;29;20050;-66
2022/01/02 14:10:07;;;;;;;13.45;9.63;;;;;;;;;;4837757;29;20046;-66
2022/01/02 14:12:35;;;;;;;12.73;9.38;;;;;;;;;;4825598;29;20038;-67
2022/01/02 14:15:27;;;;;;;11.65;9.23;;;;;;;;;;4821325;29;20058;-67
2022/01/02 14:17:55;;;;;;;13.55;9.70;;;;;;;;;;4828400;29;20499;-66
2022/01/02 14:20:26;;;;;;;12.10;8.57;;;;;;;;;;4820139;29;20138;-67
2022/01/02 14:22:54;;;;;;;16.08;10.55;;;;;;;;;;4820050;29;20052;-66
2022/01/02 14:25:22;;;;;;;15.68;10.73;;;;;;;;;;4820968;29;20057;-66
2022/01/02 14:27:51;;;;;;;13.13;9.38;;;;;;;;;;4820820;29;20052;-66
2022/01/02 14:30:20;;;;;;;14.35;10.07;;;;;;;;;;4819966;29;20048;-67
2022/01/02 14:32:47;;;;;;;14.43;10.43;;;;;;;;;;4822376;29;20042;-66
2022/01/02 14:35:16;;;;;;;12.43;10.38;;;;;;;;;;4828855;29;20376;-66
2022/01/02 14:37:45;;;;;;;11.02;9.02;;;;;;;;;;4820407;29;20051;-67
2022/01/02 14:40:13;;;;;;;10.85;9.27;;;;;;;;;;4830210;29;20056;-66
2022/01/02 14:42:40;;;;;;;12.05;10.02;;;;;;;;;;4827678;29;20039;-67
2022/01/02 14:45:09;;;;;;;10.98;9.20;;;;;;;;;;4834398;29;20387;-66
2022/01/02 14:47:38;;;;;;;9.43;8.38;;;;;;;;;;4838590;29;20519;-66
2022/01/02 14:50:06;;;;;;;14.70;11.38;;;;;;;;;;4820955;29;20038;-66
2022/01/02 14:52:35;;;;;;;14.43;11.45;;;;;;;;;;4848865;29;20047;-66
2022/01/02 14:55:07;;;;;;;12.80;9.93;;;;;;;;;;4820466;29;20039;-66
2022/01/02 14:57:34;;;;;;;16.98;12.43;;;;;;;;;;4831169;29;20072;-66
2022/01/02 15:00:04;;;;;;;13.50;10.95;;;;;;;;;;4837824;29;20520;-66
2022/01/02 15:02:31;;;;;;;16.40;12.13;;;;;;;;;;4820107;29;20046;-67
2022/01/02 15:04:59;;;;;;;17.40;12.45;;;;;;;;;;4828929;29;20136;-66
2022/01/02 15:07:26;;;;;;;20.15;13.57;;;;;;;;;;4826641;29;20048;-66
2022/01/02 15:09:56;;;;;;;14.20;10.82;;;;;;;;;;4835410;29;20437;-66
2022/01/02 15:12:23;;;;;;;16.83;11.65;;;;;;;;;;4830400;29;20052;-67
2022/01/02 15:14:51;;;;;;;13.32;10.50;;;;;;;;;;4837425;29;20475;-67
2022/01/02 15:17:18;;;;;;;20.95;13.85;;;;;;;;;;4820793;29;20229;-66
2022/01/02 15:19:45;;;;;;;17.27;12.18;;;;;;;;;;4832762;29;20077;-66
2022/01/02 15:22:13;;;;;;;22.98;14.80;;;;;;;;;;4822758;29;20050;-66
2022/01/02 15:24:41;;;;;;;20.75;15.98;;;;;;;;;;4834923;29;20117;-67
2022/01/02 15:27:09;;;;;;;19.70;13.18;;;;;;;;;;4835003;29;20054;-67
2022/01/02 15:29:44;;;;;;;19.98;14.32;;;;;;;;;;4836821;29;20390;-66
2022/01/02 15:32:12;;;;;;;24.63;14.48;;;;;;;;;;4822133;29;20054;-67
2022/01/02 15:34:40;;;;;;;18.42;13.63;;;;;;;;;;4833100;29;20113;-67
2022/01/02 15:37:07;;;;;;;21.13;14.05;;;;;;;;;;4831227;29;20582;-67
2022/01/02 15:39:35;;;;;;;17.13;12.93;;;;;;;;;;4839661;29;20049;-66
2022/01/02 15:42:02;;;;;;;28.67;18.58;;;;;;;;;;4826210;29;20043;-66
2022/01/02 15:44:29;;;;;;;15.18;12.40;;;;;;;;;;4834099;29;20519;-67
2022/01/02 15:46:57;;;;;;;17.20;14.13;;;;;;;;;;4828271;29;20460;-67
2022/01/02 15:49:24;;;;;;;18.95;14.90;;;;;;;;;;4834150;29;20510;-66
2022/01/02 15:51:52;;;;;;;20.83;15.15;;;;;;;;;;4829732;29;20046;-66
2022/01/02 15:54:20;;;;;;;17.15;13.77;;;;;;;;;;4824171;29;20213;-67
2022/01/02 15:56:48;;;;;;;15.65;12.85;;;;;;;;;;4835625;29;20050;-67
2022/01/02 15:59:15;;;;;;;15.90;12.32;;;;;;;;;;4842455;29;20137;-66